createdAt,value
2018-03-26T00:00:31.097Z,12.8
2018-03-26T00:01:53.450Z,12.8
2018-03-26T00:03:13.268Z,12.6
2018-03-26T00:04:33.071Z,12.6
2018-03-26T00:05:55.422Z,12.5
2018-03-26T00:07:17.804Z,12.4
2018-03-26T00:08:47.733Z,12.4
2018-03-26T00:10:07.542Z,12.5
2018-03-26T00:11:29.986Z,12.6
2018-03-26T00:12:57.411Z,12.7
2018-03-26T00:14:17.224Z,12.5
2018-03-26T00:15:37.092Z,12.5
2018-03-26T00:16:56.901Z,12.5
2018-03-26T00:18:19.276Z,12.5
2018-03-26T00:19:41.627Z,12.4
2018-03-26T00:21:03.986Z,12.5
2018-03-26T00:22:33.975Z,12.4
2018-03-26T00:23:53.838Z,12.5
2018-03-26T00:25:13.669Z,12.6
2018-03-26T00:26:33.489Z,12.6
2018-03-26T00:27:55.836Z,12.7
2018-03-26T00:29:20.764Z,12.5
2018-03-26T00:30:45.679Z,12.6
2018-03-26T00:32:08.016Z,12.5
2018-03-26T00:33:27.825Z,12.5
2018-03-26T00:34:55.218Z,12.5
2018-03-26T00:36:17.591Z,12.6
2018-03-26T00:37:37.398Z,12.5
2018-03-26T00:38:57.234Z,12.6
2018-03-26T00:40:19.649Z,12.4
2018-03-26T00:41:49.621Z,12.5
2018-03-26T00:43:09.506Z,12.6
2018-03-26T00:44:31.847Z,12.6
2018-03-26T00:45:54.245Z,12.6
2018-03-26T00:47:14.067Z,12.6
2018-03-26T00:48:33.882Z,12.6
2018-03-26T00:49:58.801Z,12.5
2018-03-26T00:51:18.606Z,12.5
2018-03-26T00:52:38.411Z,12.5
2018-03-26T00:54:05.808Z,12.5
2018-03-26T00:55:28.142Z,12.5
2018-03-26T00:56:47.948Z,12.5
2018-03-26T00:58:12.861Z,12.5
2018-03-26T00:59:32.682Z,12.5
2018-03-26T01:00:52.492Z,12.5
2018-03-26T01:02:12.301Z,12.4
2018-03-26T01:03:32.109Z,12.5
2018-03-26T01:04:51.920Z,12.5
2018-03-26T01:06:14.292Z,12.6
2018-03-26T01:07:34.176Z,12.6
2018-03-26T01:09:01.568Z,12.4
2018-03-26T01:10:21.376Z,12.5
2018-03-26T01:11:41.193Z,12.5
2018-03-26T01:13:06.077Z,12.3
2018-03-26T01:14:28.408Z,12.4
2018-03-26T01:15:53.273Z,12.4
2018-03-26T01:17:15.661Z,12.4
2018-03-26T01:18:35.499Z,12.3
2018-03-26T01:19:55.314Z,12.3
2018-03-26T01:21:15.175Z,12.3
2018-03-26T01:22:35.030Z,12.2
2018-03-26T01:23:57.366Z,12.2
2018-03-26T01:25:19.743Z,12.1
2018-03-26T01:26:39.583Z,12.3
2018-03-26T01:27:59.492Z,12.2
2018-03-26T01:29:21.833Z,12.1
2018-03-26T01:30:46.698Z,12.1
2018-03-26T01:32:06.521Z,12.4
2018-03-26T01:33:26.329Z,12.3
2018-03-26T01:34:46.197Z,12.4
2018-03-26T01:36:06.008Z,12.3
2018-03-26T01:37:25.859Z,12.4
2018-03-26T01:38:45.723Z,12.3
2018-03-26T01:40:05.535Z,12.3
2018-03-26T01:41:25.344Z,13.4
2018-03-26T01:42:45.187Z,13.3
2018-03-26T01:44:07.543Z,13.3
2018-03-26T01:45:29.878Z,13.3
2018-03-26T01:46:49.749Z,13.4
2018-03-26T01:48:09.613Z,13.4
2018-03-26T01:49:29.510Z,13.3
2018-03-26T01:50:49.363Z,13.4
2018-03-26T01:52:14.285Z,13.3
2018-03-26T01:53:34.120Z,13.3
2018-03-26T01:55:11.685Z,13.3
2018-03-26T01:56:41.658Z,13.3
2018-03-26T01:58:01.473Z,13.2
2018-03-26T01:59:21.336Z,12.8
2018-03-26T02:00:41.175Z,12.9
2018-03-26T02:02:03.536Z,11.7
2018-03-26T02:03:28.460Z,11.6
2018-03-26T02:04:48.314Z,11.5
2018-03-26T02:06:10.661Z,11.3
2018-03-26T02:07:30.469Z,11.8
2018-03-26T02:08:50.319Z,11.7
2018-03-26T02:10:12.676Z,11.7
2018-03-26T02:11:35.016Z,11.7
2018-03-26T02:12:59.882Z,11.7
2018-03-26T02:14:19.691Z,11.6
2018-03-26T02:15:49.649Z,12.3
2018-03-26T02:17:09.504Z,12.4
2018-03-26T02:18:29.420Z,12
2018-03-26T02:19:54.332Z,12
2018-03-26T02:21:16.697Z,12
2018-03-26T02:22:44.117Z,12
2018-03-26T02:24:06.457Z,11.9
2018-03-26T02:25:28.867Z,11.9
2018-03-26T02:26:48.700Z,11.9
2018-03-26T02:28:08.512Z,11.9
2018-03-26T02:29:28.380Z,11.9
2018-03-26T02:31:03.374Z,11.9
2018-03-26T02:32:23.223Z,11.8
2018-03-26T02:33:48.095Z,11.7
2018-03-26T02:35:07.958Z,11.9
2018-03-26T02:36:27.773Z,11.8
2018-03-26T02:37:57.754Z,11.8
2018-03-26T02:39:17.573Z,11.9
2018-03-26T02:40:39.921Z,11.4
2018-03-26T02:42:12.435Z,11.4
2018-03-26T02:43:32.279Z,11.4
2018-03-26T02:44:52.111Z,11.4
2018-03-26T02:46:27.106Z,11.3
2018-03-26T02:47:46.920Z,11.3
2018-03-26T02:49:11.842Z,11.3
2018-03-26T02:50:44.401Z,11.4
2018-03-26T02:52:04.238Z,11.5
2018-03-26T02:53:26.590Z,11.4
2018-03-26T02:54:46.443Z,11.3
2018-03-26T02:56:06.250Z,11.3
2018-03-26T02:57:26.065Z,11.5
2018-03-26T02:58:48.459Z,11.3
2018-03-26T03:00:10.812Z,11.4
2018-03-26T03:01:30.621Z,11.5
2018-03-26T03:02:53.006Z,11.5
2018-03-26T03:04:15.369Z,11.5
2018-03-26T03:05:35.238Z,11.6
2018-03-26T03:06:55.049Z,11.6
2018-03-26T03:08:14.873Z,11.4
2018-03-26T03:09:37.241Z,11.5
2018-03-26T03:11:02.204Z,11.5
2018-03-26T03:12:24.564Z,11.5
2018-03-26T03:13:49.439Z,11.5
2018-03-26T03:15:14.373Z,11.5
2018-03-26T03:16:39.302Z,11.5
2018-03-26T03:18:01.646Z,11.2
2018-03-26T03:19:24.074Z,11.3
2018-03-26T03:20:43.930Z,11.3
2018-03-26T03:22:03.760Z,11.2
2018-03-26T03:23:28.680Z,11.2
2018-03-26T03:24:51.058Z,11.2
2018-03-26T03:26:10.863Z,11.2
2018-03-26T03:27:33.211Z,11.4
2018-03-26T03:28:58.158Z,11.5
2018-03-26T03:30:20.542Z,11.4
2018-03-26T03:31:42.899Z,11.4
2018-03-26T03:33:05.237Z,11.4
2018-03-26T03:34:32.632Z,11.3
2018-03-26T03:35:52.486Z,11.3
2018-03-26T03:37:14.879Z,11.4
2018-03-26T03:38:37.227Z,11.3
2018-03-26T03:39:57.032Z,11.4
2018-03-26T03:41:21.905Z,11.4
2018-03-26T03:42:46.768Z,11.4
2018-03-26T03:44:11.653Z,11.4
2018-03-26T03:45:39.090Z,11.4
2018-03-26T03:46:58.932Z,11.3
2018-03-26T03:48:18.804Z,11.5
2018-03-26T03:49:41.149Z,11.6
2018-03-26T03:51:03.547Z,11.6
2018-03-26T03:52:28.437Z,11.6
2018-03-26T03:53:50.774Z,11.4
2018-03-26T03:55:15.655Z,11.5
2018-03-26T03:56:35.469Z,11.3
2018-03-26T03:57:55.306Z,11.2
2018-03-26T03:59:17.642Z,11.2
2018-03-26T04:00:55.174Z,11.4
2018-03-26T04:02:17.564Z,11.5
2018-03-26T04:03:44.994Z,11.3
2018-03-26T04:05:07.404Z,11.3
2018-03-26T04:06:29.741Z,11.5
2018-03-26T04:07:54.639Z,11.5
2018-03-26T04:09:14.448Z,11.5
2018-03-26T04:10:34.253Z,11.4
2018-03-26T04:11:54.096Z,11.4
2018-03-26T04:13:16.470Z,11.4
2018-03-26T04:14:36.282Z,11.3
2018-03-26T04:16:06.226Z,11.3
2018-03-26T04:17:28.611Z,11.3
2018-03-26T04:18:48.445Z,11.2
2018-03-26T04:20:08.287Z,11.3
2018-03-26T04:21:35.725Z,11.3
2018-03-26T04:22:55.533Z,11.4
2018-03-26T04:24:15.335Z,11.3
2018-03-26T04:25:35.152Z,11.3
2018-03-26T04:27:00.054Z,11.3
2018-03-26T04:28:27.462Z,11.5
2018-03-26T04:29:49.804Z,11.4
2018-03-26T04:31:14.715Z,11.3
2018-03-26T04:32:34.566Z,11.3
2018-03-26T04:34:04.490Z,11.2
2018-03-26T04:35:31.887Z,11.1
2018-03-26T04:36:51.748Z,11.1
2018-03-26T04:38:19.160Z,10.7
2018-03-26T04:39:44.051Z,10.9
2018-03-26T04:41:08.953Z,11.2
2018-03-26T04:42:31.304Z,11.3
2018-03-26T04:43:51.110Z,11.4
2018-03-26T04:45:13.508Z,12
2018-03-26T04:46:51.033Z,11.9
2018-03-26T04:48:18.514Z,12.1
2018-03-26T04:49:40.869Z,12.1
2018-03-26T04:51:03.284Z,11.9
2018-03-26T04:52:25.642Z,12.5
2018-03-26T04:53:53.062Z,12.1
2018-03-26T04:55:12.907Z,12
2018-03-26T04:56:32.767Z,12.1
2018-03-26T04:57:52.580Z,12.1
2018-03-26T04:59:14.915Z,12.1
2018-03-26T05:00:39.795Z,12.2
2018-03-26T05:01:59.666Z,12.2
2018-03-26T05:03:24.530Z,12.1
2018-03-26T05:04:44.390Z,12.2
2018-03-26T05:06:24.425Z,12
2018-03-26T05:07:46.834Z,12
2018-03-26T05:09:06.691Z,12.1
2018-03-26T05:10:26.504Z,12.2
2018-03-26T05:11:51.384Z,12.8
2018-03-26T05:13:21.305Z,12.8
2018-03-26T05:14:41.119Z,12.8
2018-03-26T05:16:03.494Z,12.9
2018-03-26T05:17:28.444Z,13
2018-03-26T05:18:48.286Z,13
2018-03-26T05:20:08.130Z,13.1
2018-03-26T05:21:35.578Z,13
2018-03-26T05:22:55.390Z,13.2
2018-03-26T05:24:15.205Z,13.1
2018-03-26T05:25:35.011Z,13.1
2018-03-26T05:26:54.827Z,12.9
2018-03-26T05:28:17.204Z,12.9
2018-03-26T05:29:42.075Z,13.2
2018-03-26T05:31:04.524Z,13.2
2018-03-26T05:32:24.405Z,13.1
2018-03-26T05:33:44.255Z,13.1
2018-03-26T05:35:04.065Z,13.1
2018-03-26T05:36:28.934Z,13
2018-03-26T05:37:48.777Z,12.8
2018-03-26T05:39:08.621Z,12.9
2018-03-26T05:40:28.513Z,12.8
2018-03-26T05:41:48.359Z,12.9
2018-03-26T05:43:08.203Z,12.9
2018-03-26T05:44:28.103Z,12.9
2018-03-26T05:45:52.996Z,12.9
2018-03-26T05:47:15.349Z,12.9
2018-03-26T05:48:37.698Z,13
2018-03-26T05:49:57.544Z,13
2018-03-26T05:51:22.412Z,12.9
2018-03-26T05:52:42.228Z,12.9
2018-03-26T05:54:07.106Z,12.9
2018-03-26T05:55:26.943Z,13
2018-03-26T05:56:46.748Z,12.9
2018-03-26T05:58:11.667Z,12.9
2018-03-26T05:59:34.026Z,12.9
2018-03-26T06:00:58.886Z,12.9
2018-03-26T06:02:18.760Z,12.8
2018-03-26T06:03:38.614Z,12.6
2018-03-26T06:04:58.467Z,10.7
2018-03-26T06:06:18.297Z,11
2018-03-26T06:07:38.132Z,10.8
2018-03-26T06:08:57.978Z,11
2018-03-26T06:10:17.814Z,11.6
2018-03-26T06:11:37.658Z,11.6
2018-03-26T06:12:57.494Z,11
2018-03-26T06:14:17.364Z,11.8
2018-03-26T06:15:37.215Z,11.8
2018-03-26T06:16:57.057Z,11.6
2018-03-26T06:18:19.402Z,11.7
2018-03-26T06:19:39.279Z,10.8
2018-03-26T06:21:04.150Z,11.4
2018-03-26T06:22:24.008Z,11.3
2018-03-26T06:23:46.346Z,11.8
2018-03-26T06:25:08.698Z,11.4
2018-03-26T06:26:33.599Z,11.7
2018-03-26T06:27:53.438Z,11.3
2018-03-26T06:29:13.312Z,11.4
2018-03-26T06:30:35.786Z,11.6
2018-03-26T06:31:55.689Z,11.1
2018-03-26T06:33:20.556Z,11.8
2018-03-26T06:34:45.429Z,11.6
2018-03-26T06:36:15.403Z,11.5
2018-03-26T06:37:42.843Z,11.4
2018-03-26T06:39:07.733Z,11.5
2018-03-26T06:40:27.570Z,11.3
2018-03-26T06:41:54.985Z,11.2
2018-03-26T06:43:14.797Z,10.9
2018-03-26T06:44:49.792Z,11.2
2018-03-26T06:46:09.605Z,11.3
2018-03-26T06:47:29.410Z,10.9
2018-03-26T06:48:49.247Z,11.1
2018-03-26T06:50:11.601Z,11.2
2018-03-26T06:51:31.431Z,11.3
2018-03-26T06:52:51.291Z,11.3
2018-03-26T06:54:16.187Z,11.3
2018-03-26T06:55:35.999Z,11.3
2018-03-26T06:56:58.410Z,11.2
2018-03-26T06:58:18.251Z,11.3
2018-03-26T06:59:38.113Z,11.3
2018-03-26T07:01:00.461Z,11.5
2018-03-26T07:02:20.274Z,11.6
2018-03-26T07:03:40.186Z,11.6
2018-03-26T07:05:02.549Z,11.6
2018-03-26T07:06:22.395Z,11.5
2018-03-26T07:07:42.275Z,11.5
2018-03-26T07:09:04.671Z,11.5
2018-03-26T07:10:27.017Z,11.6
2018-03-26T07:11:46.829Z,11.6
2018-03-26T07:13:06.667Z,11.7
2018-03-26T07:14:26.474Z,11.8
2018-03-26T07:15:48.904Z,12
2018-03-26T07:17:16.356Z,12.1
2018-03-26T07:18:36.201Z,11.9
2018-03-26T07:19:58.561Z,11.5
2018-03-26T07:21:20.899Z,10.8
2018-03-26T07:22:43.307Z,10.2
2018-03-26T07:24:03.120Z,9.9
2018-03-26T07:25:25.438Z,9.3
2018-03-26T07:26:45.258Z,8.9
2018-03-26T07:28:07.616Z,9.2
2018-03-26T07:29:29.965Z,11
2018-03-26T07:30:49.777Z,10.6
2018-03-26T07:32:12.105Z,10.3
2018-03-26T07:33:31.926Z,11.1
2018-03-26T07:34:54.271Z,12.5
2018-03-26T07:36:16.597Z,9.9
2018-03-26T07:37:41.467Z,10.3
2018-03-26T07:39:01.279Z,11.5
2018-03-26T07:40:21.085Z,10.9
2018-03-26T07:41:40.957Z,10.2
2018-03-26T07:43:00.781Z,9.9
2018-03-26T07:44:23.122Z,9.5
2018-03-26T07:45:42.944Z,9
2018-03-26T07:47:02.767Z,8.7
2018-03-26T07:48:25.158Z,7.8
2018-03-26T07:49:47.566Z,11.9
2018-03-26T07:51:09.940Z,11.5
2018-03-26T07:52:29.750Z,11.3
2018-03-26T07:53:57.151Z,11.3
2018-03-26T07:55:17.026Z,11.2
2018-03-26T07:56:39.366Z,12.2
2018-03-26T07:58:01.697Z,11.7
2018-03-26T07:59:26.606Z,12.1
2018-03-26T08:00:51.487Z,12.2
2018-03-26T08:02:11.356Z,12.2
2018-03-26T08:03:31.193Z,12.2
2018-03-26T08:04:51.023Z,12.3
2018-03-26T08:06:10.834Z,12.3
2018-03-26T08:07:35.751Z,11.8
2018-03-26T08:08:55.556Z,12.2
2018-03-26T08:10:23.035Z,12.2
2018-03-26T08:11:42.864Z,12.3
2018-03-26T08:13:02.717Z,12.7
2018-03-26T08:14:32.712Z,12.8
2018-03-26T08:16:00.107Z,12.9
2018-03-26T08:17:27.537Z,13
2018-03-26T08:18:57.502Z,13.1
2018-03-26T08:20:19.902Z,13
2018-03-26T08:21:47.356Z,13
2018-03-26T08:23:07.180Z,13
2018-03-26T08:24:34.585Z,13.1
2018-03-26T08:25:54.394Z,13.2
2018-03-26T08:27:21.796Z,13.3
2018-03-26T08:28:41.607Z,13.2
2018-03-26T08:30:01.464Z,13.2
2018-03-26T08:31:21.274Z,13.3
2018-03-26T08:32:46.140Z,13.1
2018-03-26T08:34:05.945Z,12.8
2018-03-26T08:35:25.775Z,13.1
2018-03-26T08:36:45.635Z,13
2018-03-26T08:38:05.449Z,13.2
2018-03-26T08:39:27.815Z,13.3
2018-03-26T08:40:52.748Z,13.5
2018-03-26T08:42:20.258Z,13.4
2018-03-26T08:44:02.953Z,13.6
2018-03-26T08:45:22.831Z,13.6
2018-03-26T08:46:42.680Z,13.4
2018-03-26T08:48:05.050Z,13.4
2018-03-26T08:49:24.853Z,13.4
2018-03-26T08:50:44.695Z,13.5
2018-03-26T08:52:04.540Z,13.4
2018-03-26T08:53:31.935Z,13.5
2018-03-26T08:54:54.341Z,13.4
2018-03-26T08:56:14.177Z,13.5
2018-03-26T08:57:36.528Z,13.5
2018-03-26T08:58:58.871Z,13.4
2018-03-26T09:00:23.736Z,13.2
2018-03-26T09:01:43.599Z,13.3
2018-03-26T09:03:03.401Z,13.5
2018-03-26T09:04:25.737Z,13.5
2018-03-26T09:05:53.187Z,13.4
2018-03-26T09:07:18.078Z,13.4
2018-03-26T09:08:48.036Z,13.4
2018-03-26T09:10:07.882Z,13.5
2018-03-26T09:11:30.253Z,13.4
2018-03-26T09:12:50.077Z,13.5
2018-03-26T09:14:09.907Z,13.5
2018-03-26T09:15:34.801Z,13.3
2018-03-26T09:16:54.605Z,13.4
2018-03-26T09:18:14.432Z,13.4
2018-03-26T09:19:34.246Z,13.2
2018-03-26T09:20:54.079Z,13.3
2018-03-26T09:22:13.947Z,13.4
2018-03-26T09:23:33.754Z,13.4
2018-03-26T09:24:53.608Z,13.2
2018-03-26T09:26:13.422Z,13.3
2018-03-26T09:27:40.836Z,13.3
2018-03-26T09:29:05.706Z,13.4
2018-03-26T09:30:33.126Z,13.2
2018-03-26T09:31:52.933Z,12.9
2018-03-26T09:33:15.282Z,13.1
2018-03-26T09:34:37.648Z,13
2018-03-26T09:35:57.504Z,13
2018-03-26T09:37:19.874Z,13.3
2018-03-26T09:38:39.683Z,13.1
2018-03-26T09:39:59.545Z,13.2
2018-03-26T09:41:19.365Z,13.2
2018-03-26T09:42:39.214Z,13.2
2018-03-26T09:43:59.023Z,13
2018-03-26T09:45:18.887Z,13.3
2018-03-26T09:46:38.697Z,13.2
2018-03-26T09:48:01.044Z,13.2
2018-03-26T09:49:20.857Z,13.3
2018-03-26T09:50:43.197Z,13.2
2018-03-26T09:52:03.008Z,13.2
2018-03-26T09:53:22.890Z,13.3
2018-03-26T09:54:45.322Z,13.5
2018-03-26T09:56:07.689Z,13.5
2018-03-26T09:57:32.590Z,13.4
2018-03-26T09:58:52.485Z,13.6
2018-03-26T10:00:12.334Z,13.6
2018-03-26T10:01:39.733Z,13.5
2018-03-26T10:02:59.554Z,13.5
2018-03-26T10:04:21.919Z,13.6
2018-03-26T10:05:41.755Z,13.6
2018-03-26T10:07:01.587Z,13.3
2018-03-26T10:08:21.470Z,13.3
2018-03-26T10:09:48.877Z,13.4
2018-03-26T10:11:08.695Z,13.3
2018-03-26T10:12:36.133Z,13.3
2018-03-26T10:14:08.718Z,13.2
2018-03-26T10:15:31.089Z,13.3
2018-03-26T10:16:58.497Z,13.2
2018-03-26T10:18:18.342Z,13.2
2018-03-26T10:19:38.154Z,13.2
2018-03-26T10:21:00.502Z,13
2018-03-26T10:22:30.429Z,10.8
2018-03-26T10:23:50.239Z,11.6
2018-03-26T10:25:10.055Z,12
2018-03-26T10:26:29.894Z,11.7
2018-03-26T10:27:54.795Z,11.5
2018-03-26T10:29:14.657Z,11.7
2018-03-26T10:30:34.467Z,11.9
2018-03-26T10:31:56.893Z,11.6
2018-03-26T10:33:24.323Z,12
2018-03-26T10:34:46.713Z,12.7
2018-03-26T10:36:11.621Z,10.7
2018-03-26T10:37:33.961Z,12.4
2018-03-26T10:38:53.770Z,12.2
2018-03-26T10:40:16.113Z,11.8
2018-03-26T10:41:40.979Z,11.5
2018-03-26T10:43:00.811Z,11.6
2018-03-26T10:44:25.704Z,11.4
2018-03-26T10:45:48.053Z,11.3
2018-03-26T10:47:07.860Z,11.6
2018-03-26T10:48:27.724Z,12
2018-03-26T10:49:57.733Z,12.4
2018-03-26T10:51:17.547Z,12.3
2018-03-26T10:52:39.881Z,12.1
2018-03-26T10:54:04.803Z,12.5
2018-03-26T10:55:24.645Z,12.4
2018-03-26T10:56:49.547Z,12.5
2018-03-26T10:58:14.424Z,12.3
2018-03-26T10:59:34.239Z,11.5
2018-03-26T11:01:06.716Z,10.1
2018-03-26T11:02:26.610Z,10.6
2018-03-26T11:03:46.482Z,11.4
2018-03-26T11:05:06.292Z,11
2018-03-26T11:06:31.210Z,10.9
2018-03-26T11:07:58.621Z,11
2018-03-26T11:09:18.428Z,11
2018-03-26T11:10:40.770Z,12
2018-03-26T11:12:05.680Z,11.9
2018-03-26T11:13:25.525Z,11.3
2018-03-26T11:14:50.402Z,11.1
2018-03-26T11:16:25.386Z,11.3
2018-03-26T11:17:52.823Z,11.1
2018-03-26T11:19:12.652Z,10.6
2018-03-26T11:20:35.010Z,10.7
2018-03-26T11:21:54.854Z,10.8
2018-03-26T11:23:17.275Z,10.9
2018-03-26T11:24:42.200Z,10.9
2018-03-26T11:26:07.097Z,11
2018-03-26T11:27:26.959Z,10.7
2018-03-26T11:28:56.942Z,10.1
2018-03-26T11:30:16.766Z,8.9
2018-03-26T11:31:36.600Z,10.3
2018-03-26T11:32:56.487Z,10.3
2018-03-26T11:34:18.864Z,10.2
2018-03-26T11:35:38.704Z,11.7
2018-03-26T11:36:58.536Z,12.1
2018-03-26T11:38:18.347Z,12.1
2018-03-26T11:39:38.211Z,12.4
2018-03-26T11:41:05.619Z,12.6
2018-03-26T11:42:40.594Z,12.7
2018-03-26T11:44:05.500Z,12.3
2018-03-26T11:45:25.316Z,11.6
2018-03-26T11:46:47.653Z,11.5
2018-03-26T11:48:10.026Z,11.5
2018-03-26T11:49:37.448Z,11.2
2018-03-26T11:50:59.841Z,11.4
2018-03-26T11:52:19.669Z,11.7
2018-03-26T11:53:49.620Z,11.8
2018-03-26T11:55:09.434Z,11.8
2018-03-26T11:56:29.315Z,11.9
2018-03-26T11:57:49.157Z,11.8
2018-03-26T11:59:11.522Z,11.7
2018-03-26T12:00:31.384Z,11.8
2018-03-26T12:01:51.206Z,11.8
2018-03-26T12:03:11.049Z,11.8
2018-03-26T12:04:35.965Z,11.8
2018-03-26T12:06:00.832Z,11.9
2018-03-26T12:07:20.644Z,11.9
2018-03-26T12:08:40.479Z,11.9
2018-03-26T12:10:00.296Z,11.9
2018-03-26T12:11:25.812Z,11.9
2018-03-26T12:12:48.149Z,11.9
2018-03-26T12:14:13.062Z,12
2018-03-26T12:15:32.881Z,12
2018-03-26T12:16:55.261Z,11.8
2018-03-26T12:18:15.113Z,11.9
2018-03-26T12:19:42.523Z,11.6
2018-03-26T12:21:07.405Z,11.7
2018-03-26T12:22:34.830Z,13.7
2018-03-26T12:23:54.695Z,13.5
2018-03-26T12:25:14.502Z,13.8
2018-03-26T12:26:44.449Z,13.9
2018-03-26T12:28:06.851Z,13.8
2018-03-26T12:29:29.186Z,13.9
2018-03-26T12:30:49.039Z,13.9
2018-03-26T12:32:08.851Z,13.9
2018-03-26T12:33:33.718Z,14.1
2018-03-26T12:34:56.116Z,13.9
2018-03-26T12:36:15.921Z,13.9
2018-03-26T12:37:38.276Z,13.8
2018-03-26T12:39:00.628Z,13.6
2018-03-26T12:40:22.970Z,13.6
2018-03-26T12:41:42.786Z,12.7
2018-03-26T12:43:02.594Z,12.5
2018-03-26T12:44:22.411Z,12.8
2018-03-26T12:45:42.217Z,12.6
2018-03-26T12:47:14.688Z,12.6
2018-03-26T12:48:42.094Z,12.8
2018-03-26T12:50:01.943Z,12.7
2018-03-26T12:51:29.342Z,12.9
2018-03-26T12:52:49.206Z,13.3
2018-03-26T12:54:11.576Z,13.7
2018-03-26T12:55:33.912Z,13.7
2018-03-26T12:56:53.728Z,13.7
2018-03-26T12:58:13.548Z,13.8
2018-03-26T12:59:33.387Z,13.6
2018-03-26T13:00:53.200Z,13.6
2018-03-26T13:02:13.018Z,13.6
2018-03-26T13:03:37.899Z,13.9
2018-03-26T13:04:57.775Z,13.6
2018-03-26T13:06:17.638Z,13.7
2018-03-26T13:07:37.470Z,13.8
2018-03-26T13:08:57.333Z,12.9
2018-03-26T13:10:22.209Z,13.2
2018-03-26T13:11:42.022Z,13
2018-03-26T13:13:04.396Z,13
2018-03-26T13:14:24.219Z,13.2
2018-03-26T13:15:46.583Z,13.1
2018-03-26T13:17:06.424Z,13.1
2018-03-26T13:18:28.778Z,13
2018-03-26T13:19:48.594Z,13
2018-03-26T13:21:08.422Z,12.8
2018-03-26T13:22:33.303Z,12.9
2018-03-26T13:24:03.264Z,12.6
2018-03-26T13:25:28.149Z,12.6
2018-03-26T13:26:47.962Z,11.9
2018-03-26T13:28:10.378Z,11.6
2018-03-26T13:29:30.197Z,11.4
2018-03-26T13:30:50.016Z,11.4
2018-03-26T13:32:09.848Z,10.6
2018-03-26T13:33:29.666Z,11.2
2018-03-26T13:34:52.011Z,11.2
2018-03-26T13:36:11.840Z,11.2
2018-03-26T13:37:39.230Z,11.1
2018-03-26T13:38:59.083Z,10.7
2018-03-26T13:40:18.907Z,13.4
2018-03-26T13:41:38.718Z,13.5
2018-03-26T13:42:58.616Z,10.9
2018-03-26T13:44:18.458Z,12.4
2018-03-26T13:45:40.832Z,12.2
2018-03-26T13:47:00.676Z,12.5
2018-03-26T13:48:25.608Z,12.3
2018-03-26T13:49:53.070Z,12.1
2018-03-26T13:51:12.903Z,11.7
2018-03-26T13:52:35.254Z,11.8
2018-03-26T13:53:55.065Z,11.7
2018-03-26T13:55:14.885Z,11.8
2018-03-26T13:56:34.698Z,11.9
2018-03-26T13:57:57.034Z,11.9
2018-03-26T13:59:16.874Z,12.2
2018-03-26T14:00:39.273Z,12.1
2018-03-26T14:01:59.143Z,12.2
2018-03-26T14:03:19.011Z,12.4
2018-03-26T14:04:38.830Z,12.5
2018-03-26T14:05:58.679Z,12.5
2018-03-26T14:07:21.062Z,12.5
2018-03-26T14:08:45.964Z,12.5
2018-03-26T14:10:05.806Z,12.5
2018-03-26T14:11:25.674Z,12.5
2018-03-26T14:12:45.517Z,12.4
2018-03-26T14:14:10.442Z,12.6
2018-03-26T14:15:37.857Z,11.8
2018-03-26T14:17:02.729Z,12
2018-03-26T14:18:22.569Z,11.9
2018-03-26T14:19:47.479Z,12.6
2018-03-26T14:21:07.344Z,12.8
2018-03-26T14:22:27.162Z,12.9
2018-03-26T14:23:46.976Z,14.3
2018-03-26T14:25:11.844Z,14.6
2018-03-26T14:26:31.684Z,14.8
2018-03-26T14:27:51.557Z,13.6
2018-03-26T14:29:13.962Z,14.9
2018-03-26T14:30:33.782Z,15.2
2018-03-26T14:31:56.153Z,15.3
2018-03-26T14:33:16.008Z,15.6
2018-03-26T14:34:48.516Z,15.7
2018-03-26T14:36:08.323Z,15.7
2018-03-26T14:37:28.140Z,15.7
2018-03-26T14:38:47.963Z,16
2018-03-26T14:40:07.804Z,16.4
2018-03-26T14:41:27.644Z,16.8
2018-03-26T14:42:52.521Z,16.9
2018-03-26T14:44:19.969Z,16.9
2018-03-26T14:45:43.340Z,16.9
2018-03-26T14:48:00.431Z,17.1
2018-03-26T14:49:20.306Z,17.3
2018-03-26T14:50:40.129Z,16.9
2018-03-26T14:52:02.477Z,17.1
2018-03-26T14:53:22.301Z,16.7
2018-03-26T14:54:47.179Z,17.1
2018-03-26T14:56:07.009Z,17.3
2018-03-26T14:57:26.833Z,17.5
2018-03-26T14:58:51.705Z,17.4
2018-03-26T15:00:11.526Z,17.5
2018-03-26T15:01:31.378Z,17.4
2018-03-26T15:02:53.735Z,17.4
2018-03-26T15:04:13.601Z,17.5
2018-03-26T15:05:33.465Z,17.5
2018-03-26T15:06:53.314Z,17.9
2018-03-26T15:08:13.131Z,17.7
2018-03-26T15:09:32.994Z,17.7
2018-03-26T15:10:52.813Z,17.3
2018-03-26T15:12:12.654Z,16.9
2018-03-26T15:13:32.464Z,17
2018-03-26T15:14:54.870Z,16.9
2018-03-26T15:16:17.223Z,16.9
2018-03-26T15:17:42.102Z,17
2018-03-26T15:19:04.452Z,16.7
2018-03-26T15:20:24.342Z,16.8
2018-03-26T15:21:44.177Z,14.9
2018-03-26T15:23:03.990Z,15.6
2018-03-26T15:24:23.799Z,14.5
2018-03-26T15:25:43.660Z,15.3
2018-03-26T15:27:08.552Z,14.4
2018-03-26T15:28:28.373Z,17.2
2018-03-26T15:29:50.759Z,17
2018-03-26T15:31:13.108Z,16.7
2018-03-26T15:32:33.029Z,16.6
2018-03-26T15:33:57.948Z,16.5
2018-03-26T15:35:20.333Z,16.4
2018-03-26T15:36:42.722Z,16.4
2018-03-26T15:38:05.119Z,16.4
2018-03-26T15:39:32.538Z,16.1
2018-03-26T15:40:52.364Z,16.1
2018-03-26T15:42:14.704Z,16.1
2018-03-26T15:43:37.054Z,15.6
2018-03-26T15:44:56.924Z,15.7
2018-03-26T15:46:19.320Z,15.6
2018-03-26T15:47:39.143Z,15.8
2018-03-26T15:48:58.972Z,15.6
2018-03-26T15:50:31.435Z,15.3
2018-03-26T15:51:51.275Z,15.2
2018-03-26T15:53:13.616Z,15
2018-03-26T15:54:33.425Z,14.9
2018-03-26T15:55:58.329Z,15.2
2018-03-26T15:57:18.169Z,15
2018-03-26T15:58:43.091Z,15
2018-03-26T16:00:10.567Z,15
2018-03-26T16:01:32.918Z,15.3
2018-03-26T16:02:55.274Z,13.4
2018-03-26T16:04:22.716Z,14.3
2018-03-26T16:05:42.589Z,14.3
2018-03-26T16:07:04.933Z,13.9
2018-03-26T16:08:24.795Z,13.8
2018-03-26T16:09:44.606Z,13.6
2018-03-26T16:11:07.012Z,14.9
2018-03-26T16:12:26.891Z,13
2018-03-26T16:13:54.324Z,12.2
2018-03-26T16:15:14.140Z,12.6
2018-03-26T16:16:41.563Z,15
2018-03-26T16:18:06.483Z,15.3
2018-03-26T16:19:26.299Z,15.3
2018-03-26T16:20:46.142Z,15.1
2018-03-26T16:22:08.561Z,15
2018-03-26T16:23:28.414Z,15.2
2018-03-26T16:24:48.248Z,13.6
2018-03-26T16:26:13.128Z,13.7
2018-03-26T16:27:32.958Z,13.8
2018-03-26T16:28:52.820Z,13.9
2018-03-26T16:30:12.633Z,12.2
2018-03-26T16:31:50.206Z,12.1
2018-03-26T16:33:12.607Z,11.8
2018-03-26T16:34:32.431Z,12.1
2018-03-26T16:35:54.778Z,12.3
2018-03-26T16:37:14.588Z,12
2018-03-26T16:38:47.108Z,11.4
2018-03-26T16:40:06.933Z,11.6
2018-03-26T16:41:26.775Z,11.4
2018-03-26T16:42:54.213Z,11
2018-03-26T16:44:14.082Z,10.7
2018-03-26T16:45:41.535Z,11.3
2018-03-26T16:47:06.402Z,11.4
2018-03-26T16:48:26.258Z,11.4
2018-03-26T16:49:46.118Z,11.4
2018-03-26T16:51:05.959Z,12.8
2018-03-26T16:52:25.840Z,11
2018-03-26T16:53:50.740Z,13.6
2018-03-26T16:55:10.627Z,13.5
2018-03-26T16:56:32.973Z,12.6
2018-03-26T16:57:55.357Z,12.7
2018-03-26T16:59:15.245Z,12.8
2018-03-26T17:00:35.087Z,13.1
2018-03-26T17:01:54.904Z,13
2018-03-26T17:03:14.777Z,13
2018-03-26T17:04:34.645Z,12.7
2018-03-26T17:05:54.471Z,12.5
2018-03-26T17:07:21.930Z,13.2
2018-03-26T17:08:46.802Z,13.3
2018-03-26T17:10:16.768Z,11.3
2018-03-26T17:11:41.702Z,11.8
2018-03-26T17:13:04.059Z,11.6
2018-03-26T17:14:34.000Z,11.6
2018-03-26T17:15:56.354Z,11.7
2018-03-26T17:17:21.239Z,11.7
2018-03-26T17:18:41.071Z,11.5
2018-03-26T17:20:05.947Z,11.6
2018-03-26T17:21:38.407Z,12.6
2018-03-26T17:23:03.342Z,13
2018-03-26T17:24:25.727Z,13.2
2018-03-26T17:25:48.125Z,13.1
2018-03-26T17:27:07.974Z,13
2018-03-26T17:28:30.345Z,13
2018-03-26T17:29:55.280Z,12.9
2018-03-26T17:31:15.128Z,12.9
2018-03-26T17:32:34.985Z,13
2018-03-26T17:33:54.812Z,12.9
2018-03-26T17:35:17.182Z,12.9
2018-03-26T17:36:39.531Z,12.9
2018-03-26T17:38:01.918Z,12.6
2018-03-26T17:39:24.306Z,12.8
2018-03-26T17:40:44.122Z,11.7
2018-03-26T17:42:09.039Z,11.2
2018-03-26T17:43:31.383Z,11.3
2018-03-26T17:44:51.238Z,12.7
2018-03-26T17:46:16.103Z,12.5
2018-03-26T17:47:43.523Z,12.4
2018-03-26T17:49:05.865Z,12.6
2018-03-26T17:50:28.237Z,12.4
2018-03-26T17:51:53.115Z,12.5
2018-03-26T17:53:12.980Z,12.5
2018-03-26T17:54:47.998Z,12.3
2018-03-26T17:56:07.858Z,12.6
2018-03-26T17:57:30.258Z,12.5
2018-03-26T17:58:52.676Z,12.3
2018-03-26T18:00:15.102Z,12.4
2018-03-26T18:01:34.950Z,12.7
2018-03-26T18:02:57.306Z,12.9
2018-03-26T18:04:17.118Z,12.6
2018-03-26T18:05:44.572Z,12.7
2018-03-26T18:07:06.969Z,12.6
2018-03-26T18:08:27.006Z,12.9
2018-03-26T18:09:46.821Z,12.8
2018-03-26T18:11:16.764Z,13
2018-03-26T18:12:36.582Z,12.7
2018-03-26T18:14:04.065Z,12.7
2018-03-26T18:15:23.881Z,12.6
2018-03-26T18:16:43.772Z,13.1
2018-03-26T18:18:06.177Z,13.2
2018-03-26T18:19:28.517Z,13.1
2018-03-26T18:20:53.386Z,13
2018-03-26T18:22:13.229Z,13.1
2018-03-26T18:23:35.637Z,12.8